Etusivu
METAR-TAF:

METAR-TAF

Lentoasemat :

Kirksville Regional Airport

Kirksville, Missouri, Yhdysvallat

Leveyspiiri: 40-05-50N, Pituuspiiri: 092-32-36W, korkeus merenpinnasta: 294 m

Tämänhetkinen sää

Tämä raportti tehtiin 18 minuuttia sitten, kello 12.55 UTC
Tuuli 3 kn lounaasta
Lämpötila 17°C
Kosteus 82%
Ilmanpaine 1022 hPa
Näkyvyys: 16.1 km
selkeää

METAR: KIRK 051255Z AUTO 22003KT 10SM CLR 17/14 A3017 RMK AO2 SLP215 T01670144

Aika: 08:13 (13:13 UTC)


TAF: puuttuu

Säähavainnot ja -ennusteet yli 4000 lentoasemalta (METAR- ja TAF-raportit).

Käytössä olevat sääasemat on merkitty karttaan keltaisilla ja punaisilla pisteillä.

Aseta hiiri pisteen päälle nähdäksesi sääaseman nimen.

Klikkaa sitten nähdäksesi säähavainnot ja -ennusteet.

Kartan vaihtaminen: klikkaa mustalla rastilla varustettuja vihreitä pisteitä, niin voit zoomata sisään; viivalla varustettua vihreää pistettä, niin voit zoomata ulos tai vihreitä nuolia, niin pääset viereisille kartoille.


METAR-TAF: